createdAt,value
2023-02-13T00:00:02.319Z,6.90
2023-02-13T00:02:29.011Z,6.77
2023-02-13T00:04:55.645Z,6.70
2023-02-13T00:07:22.250Z,7.33
2023-02-13T00:09:48.927Z,6.80
2023-02-13T00:12:15.550Z,6.80
2023-02-13T00:14:42.186Z,6.67
2023-02-13T00:17:08.935Z,6.57
2023-02-13T00:19:35.600Z,6.73
2023-02-13T00:22:02.297Z,6.17
2023-02-13T00:24:28.943Z,6.87
2023-02-13T00:26:55.605Z,6.47
2023-02-13T00:29:22.271Z,6.80
2023-02-13T00:31:49.009Z,6.80
2023-02-13T00:34:15.736Z,7.20
2023-02-13T00:36:42.450Z,6.93
2023-02-13T00:39:11.547Z,6.47
2023-02-13T00:41:39.118Z,6.37
2023-02-13T00:44:05.853Z,7.13
2023-02-13T00:46:32.625Z,6.80
2023-02-13T00:48:59.319Z,6.80
2023-02-13T00:51:25.983Z,6.87
2023-02-13T00:53:52.646Z,6.77
2023-02-13T00:56:19.272Z,7.27
2023-02-13T00:58:46.277Z,7.03
2023-02-13T01:01:12.982Z,6.30
2023-02-13T01:03:40.058Z,6.90
2023-02-13T01:06:07.502Z,6.90
2023-02-13T01:08:34.630Z,6.90
2023-02-13T01:11:01.346Z,7.00
2023-02-13T01:13:27.983Z,7.10
2023-02-13T01:15:54.817Z,6.97
2023-02-13T01:18:21.498Z,7.10
2023-02-13T01:21:01.041Z,7.07
2023-02-13T01:23:34.994Z,6.47
2023-02-13T01:26:04.307Z,6.53
2023-02-13T01:28:31.024Z,7.03
2023-02-13T01:30:58.764Z,6.87
2023-02-13T01:33:27.802Z,7.07
2023-02-13T01:35:54.870Z,6.43
2023-02-13T01:38:21.707Z,6.00
2023-02-13T01:40:52.803Z,6.47
2023-02-13T01:43:23.334Z,6.47
2023-02-13T01:45:53.680Z,6.20
2023-02-13T01:48:24.078Z,6.27
2023-02-13T01:51:14.774Z,6.40
2023-02-13T01:53:50.362Z,6.60
2023-02-13T01:56:38.823Z,6.10
2023-02-13T01:59:08.952Z,6.13
2023-02-13T02:01:36.818Z,6.13
2023-02-13T02:04:23.055Z,5.97
2023-02-13T02:06:55.675Z,6.17
2023-02-13T02:09:26.035Z,6.73
2023-02-13T02:11:59.362Z,6.17
2023-02-13T02:14:27.493Z,6.07
2023-02-13T02:16:54.279Z,5.93
2023-02-13T02:19:36.989Z,6.13
2023-02-13T02:22:09.519Z,5.80
2023-02-13T02:25:06.951Z,6.30
2023-02-13T02:27:41.541Z,5.90
2023-02-13T02:30:17.396Z,6.27
2023-02-13T02:33:01.813Z,5.60
2023-02-13T02:35:37.305Z,6.40
2023-02-13T02:38:40.137Z,6.03
2023-02-13T02:41:33.707Z,5.50
2023-02-13T02:44:09.147Z,5.70
2023-02-13T02:47:17.272Z,5.50
2023-02-13T02:50:01.944Z,6.17
2023-02-13T02:52:43.671Z,5.40
2023-02-13T02:55:26.404Z,5.77
2023-02-13T02:58:21.285Z,5.67
2023-02-13T03:01:08.091Z,5.50
2023-02-13T03:03:54.104Z,5.87
2023-02-13T03:06:28.128Z,5.70
2023-02-13T03:09:17.395Z,5.30
2023-02-13T03:12:09.971Z,5.63
2023-02-13T03:14:37.505Z,5.90
2023-02-13T03:17:24.106Z,5.03
2023-02-13T03:20:18.572Z,5.83
2023-02-13T03:23:07.296Z,5.77
2023-02-13T03:25:39.185Z,5.40
2023-02-13T03:28:47.294Z,5.40
2023-02-13T03:31:32.717Z,5.63
2023-02-13T03:34:06.461Z,5.90
2023-02-13T03:37:07.717Z,6.10
2023-02-13T03:39:43.311Z,5.43
2023-02-13T03:42:19.616Z,6.10
2023-02-13T03:45:19.789Z,5.80
2023-02-13T03:47:47.744Z,5.77
2023-02-13T03:50:15.262Z,6.10
2023-02-13T03:52:51.406Z,5.90
2023-02-13T03:56:00.926Z,5.27
2023-02-13T03:58:49.974Z,5.70
2023-02-13T04:01:19.283Z,5.97
2023-02-13T04:03:51.091Z,5.60
2023-02-13T04:06:24.883Z,5.97
2023-02-13T04:08:51.557Z,5.87
2023-02-13T04:11:24.135Z,5.50
2023-02-13T04:13:57.024Z,5.30
2023-02-13T04:16:40.155Z,5.53
2023-02-13T04:19:08.149Z,5.50
2023-02-13T04:21:35.780Z,5.63
2023-02-13T04:24:02.800Z,6.00
2023-02-13T04:26:43.090Z,5.93
2023-02-13T04:29:10.257Z,6.00
2023-02-13T04:31:37.126Z,5.33
2023-02-13T04:34:03.866Z,6.20
2023-02-13T04:36:30.790Z,6.07
2023-02-13T04:38:57.597Z,5.90
2023-02-13T04:41:24.383Z,6.00
2023-02-13T04:43:52.427Z,5.50
2023-02-13T04:46:19.211Z,5.53
2023-02-13T04:48:45.999Z,5.87
2023-02-13T04:51:12.820Z,5.40
2023-02-13T04:53:39.495Z,5.93
2023-02-13T04:56:06.352Z,5.70
2023-02-13T04:58:33.117Z,5.20
2023-02-13T05:01:00.101Z,6.20
2023-02-13T05:03:26.876Z,5.60
2023-02-13T05:05:53.562Z,5.63
2023-02-13T05:08:20.364Z,6.17
2023-02-13T05:10:47.221Z,5.20
2023-02-13T05:13:14.018Z,5.97
2023-02-13T05:15:40.696Z,5.63
2023-02-13T05:18:07.387Z,5.70
2023-02-13T05:20:34.078Z,5.70
2023-02-13T05:23:19.253Z,5.23
2023-02-13T05:25:45.879Z,5.30
2023-02-13T05:28:31.030Z,6.20
2023-02-13T05:30:58.147Z,5.80
2023-02-13T05:33:25.546Z,6.07
2023-02-13T05:35:52.169Z,6.10
2023-02-13T05:38:18.949Z,6.43
2023-02-13T05:40:45.728Z,6.27
2023-02-13T05:43:12.398Z,6.17
2023-02-13T05:45:39.006Z,5.90
2023-02-13T05:48:05.760Z,6.00
2023-02-13T05:50:32.380Z,5.97
2023-02-13T05:52:59.213Z,5.87
2023-02-13T05:55:25.866Z,6.20
2023-02-13T05:57:57.414Z,6.27
2023-02-13T06:00:24.536Z,5.73
2023-02-13T06:02:51.294Z,5.90
2023-02-13T06:05:17.998Z,6.23
2023-02-13T06:07:44.657Z,6.03
2023-02-13T06:10:11.595Z,6.00
2023-02-13T06:12:38.228Z,5.93
2023-02-13T06:15:05.624Z,6.13
2023-02-13T06:17:32.225Z,6.13
2023-02-13T06:19:58.844Z,5.90
2023-02-13T06:22:25.465Z,5.60
2023-02-13T06:24:52.166Z,6.60
2023-02-13T06:27:18.772Z,6.20
2023-02-13T06:29:45.655Z,5.97
2023-02-13T06:32:12.307Z,6.23
2023-02-13T06:34:39.137Z,6.30
2023-02-13T06:37:05.784Z,6.00
2023-02-13T06:39:32.559Z,6.20
2023-02-13T06:41:59.253Z,6.37
2023-02-13T06:44:25.901Z,5.90
2023-02-13T06:46:52.650Z,5.93
2023-02-13T06:49:19.580Z,6.40
2023-02-13T06:51:46.246Z,6.03
2023-02-13T06:54:12.902Z,6.00
2023-02-13T06:56:39.589Z,6.23
2023-02-13T06:59:06.344Z,5.97
2023-02-13T07:01:33.012Z,6.17
2023-02-13T07:03:59.798Z,5.30
2023-02-13T07:06:26.602Z,5.70
2023-02-13T07:08:55.864Z,6.37
2023-02-13T07:11:24.850Z,5.97
2023-02-13T07:13:51.500Z,5.63
2023-02-13T07:16:18.474Z,5.73
2023-02-13T07:18:45.278Z,5.80
2023-02-13T07:21:12.393Z,5.73
2023-02-13T07:23:39.152Z,5.20
2023-02-13T07:26:05.825Z,6.13
2023-02-13T07:28:32.785Z,5.50
2023-02-13T07:31:04.867Z,6.07
2023-02-13T07:33:32.914Z,5.33
2023-02-13T07:36:00.057Z,6.20
2023-02-13T07:38:26.744Z,5.80
2023-02-13T07:40:53.398Z,5.80
2023-02-13T07:43:20.120Z,5.70
2023-02-13T07:45:47.031Z,5.73
2023-02-13T07:48:13.937Z,5.73
2023-02-13T07:50:40.658Z,5.60
2023-02-13T07:53:07.877Z,5.40
2023-02-13T07:55:34.497Z,5.43
2023-02-13T07:58:01.814Z,5.90
2023-02-13T08:00:28.755Z,5.53
2023-02-13T08:02:55.402Z,5.17
2023-02-13T08:05:22.100Z,5.53
2023-02-13T08:07:48.906Z,5.73
2023-02-13T08:10:34.883Z,5.57
2023-02-13T08:13:01.534Z,5.33
2023-02-13T08:15:28.368Z,5.83
2023-02-13T08:17:55.092Z,5.77
2023-02-13T08:20:21.735Z,5.30
2023-02-13T08:22:48.385Z,5.50
2023-02-13T08:25:15.100Z,5.73
2023-02-13T08:27:41.819Z,6.20
2023-02-13T08:30:10.016Z,6.40
2023-02-13T08:32:52.844Z,5.80
2023-02-13T08:35:20.550Z,6.20
2023-02-13T08:37:47.716Z,6.83
2023-02-13T08:40:14.835Z,6.87
2023-02-13T08:42:41.639Z,7.17
2023-02-13T08:45:10.496Z,6.90
2023-02-13T08:47:40.525Z,6.73
2023-02-13T08:50:07.769Z,7.07
2023-02-13T08:52:34.608Z,7.23
2023-02-13T08:55:03.419Z,7.77
2023-02-13T08:57:31.111Z,8.27
2023-02-13T08:59:57.740Z,7.73
2023-02-13T09:02:24.540Z,7.60
2023-02-13T09:04:51.304Z,8.37
2023-02-13T09:07:17.973Z,8.50
2023-02-13T09:09:44.670Z,7.90
2023-02-13T09:12:11.341Z,8.50
2023-02-13T09:14:39.234Z,8.23
2023-02-13T09:17:06.161Z,7.90
2023-02-13T09:19:32.810Z,8.20
2023-02-13T09:21:59.587Z,7.83
2023-02-13T09:24:26.501Z,7.70
2023-02-13T09:26:53.126Z,7.93
2023-02-13T09:29:19.933Z,8.07
2023-02-13T09:31:46.825Z,7.97
2023-02-13T09:34:13.908Z,8.33
2023-02-13T09:36:40.556Z,8.67
2023-02-13T09:39:07.234Z,8.07
2023-02-13T09:41:37.227Z,8.67
2023-02-13T09:44:33.920Z,8.70
2023-02-13T09:47:08.137Z,8.87
2023-02-13T09:49:39.085Z,8.80
2023-02-13T09:52:05.904Z,8.33
2023-02-13T09:54:32.637Z,9.47
2023-02-13T09:57:08.172Z,8.77
2023-02-13T09:59:43.673Z,8.43
2023-02-13T10:02:44.473Z,8.77
2023-02-13T10:05:27.188Z,8.87
2023-02-13T10:08:09.795Z,8.47
2023-02-13T10:10:51.517Z,8.73
2023-02-13T10:14:06.448Z,8.40
2023-02-13T10:16:40.800Z,8.53
2023-02-13T10:19:33.393Z,8.43
2023-02-13T10:22:31.178Z,8.17
2023-02-13T10:25:03.435Z,8.43
2023-02-13T10:27:36.264Z,8.67
2023-02-13T10:30:09.298Z,8.17
2023-02-13T10:33:18.702Z,8.73
2023-02-13T10:36:10.145Z,8.43
2023-02-13T10:39:05.372Z,8.47
2023-02-13T10:42:13.507Z,8.33
2023-02-13T10:44:58.322Z,8.53
2023-02-13T10:47:44.157Z,7.93
2023-02-13T10:50:13.682Z,8.10
2023-02-13T10:52:57.689Z,7.87
2023-02-13T10:56:21.600Z,7.77
2023-02-13T10:58:50.990Z,7.40
2023-02-13T11:01:47.788Z,7.60
2023-02-13T11:04:17.891Z,8.40
2023-02-13T11:06:51.235Z,7.57
2023-02-13T11:09:17.943Z,8.00
2023-02-13T11:11:44.948Z,7.40
2023-02-13T11:14:14.781Z,7.37
2023-02-13T11:16:52.079Z,7.40
2023-02-13T11:19:39.562Z,7.43
2023-02-13T11:22:13.552Z,7.30
2023-02-13T11:24:52.150Z,6.87
2023-02-13T11:27:24.722Z,8.17
2023-02-13T11:29:57.072Z,7.37
2023-02-13T11:32:34.371Z,7.53
2023-02-13T11:35:30.922Z,7.30
2023-02-13T11:38:15.814Z,7.40
2023-02-13T11:40:52.037Z,6.97
2023-02-13T11:43:23.758Z,7.00
2023-02-13T11:46:07.740Z,7.77
2023-02-13T11:48:34.874Z,6.43
2023-02-13T11:51:01.683Z,6.97
2023-02-13T11:53:32.018Z,6.73
2023-02-13T11:56:10.794Z,6.53
2023-02-13T11:58:37.736Z,8.23
2023-02-13T12:01:10.632Z,7.43
2023-02-13T12:03:38.874Z,7.00
2023-02-13T12:06:15.623Z,7.17
2023-02-13T12:08:46.473Z,7.57
2023-02-13T12:11:35.719Z,7.50
2023-02-13T12:14:02.534Z,7.17
2023-02-13T12:16:41.263Z,6.50
2023-02-13T12:19:13.008Z,7.27
2023-02-13T12:21:45.433Z,7.10
2023-02-13T12:24:55.423Z,6.93
2023-02-13T12:27:45.958Z,7.20
2023-02-13T12:30:15.990Z,7.40
2023-02-13T12:32:55.665Z,7.00
2023-02-13T12:35:46.536Z,7.60
2023-02-13T12:38:22.177Z,7.33
2023-02-13T12:41:27.235Z,7.60
2023-02-13T12:44:06.035Z,7.87
2023-02-13T12:46:52.646Z,7.67
2023-02-13T12:49:53.934Z,7.33
2023-02-13T12:52:44.705Z,7.43
2023-02-13T12:55:35.456Z,7.47
2023-02-13T12:58:02.033Z,7.47
2023-02-13T13:00:49.078Z,7.80
2023-02-13T13:03:31.279Z,7.60
2023-02-13T13:06:35.657Z,6.87
2023-02-13T13:09:21.278Z,7.37
2023-02-13T13:12:01.885Z,7.33
2023-02-13T13:14:45.469Z,7.20
2023-02-13T13:17:39.482Z,6.93
2023-02-13T13:20:37.019Z,7.10
2023-02-13T13:23:18.033Z,7.20
2023-02-13T13:26:02.239Z,7.23
2023-02-13T13:28:36.473Z,7.23
2023-02-13T13:31:03.807Z,6.30
2023-02-13T13:33:31.286Z,7.10
2023-02-13T13:36:05.553Z,6.97
2023-02-13T13:38:52.479Z,7.00
2023-02-13T13:41:35.267Z,6.60
2023-02-13T13:44:20.180Z,7.37
2023-02-13T13:47:04.355Z,6.53
2023-02-13T13:49:54.027Z,6.33
2023-02-13T13:52:20.917Z,6.40
2023-02-13T13:54:51.532Z,6.50
2023-02-13T13:57:20.014Z,5.93
2023-02-13T13:59:51.572Z,6.53
2023-02-13T14:02:18.302Z,5.70
2023-02-13T14:05:09.380Z,5.90
2023-02-13T14:07:43.400Z,5.67
2023-02-13T14:10:21.876Z,6.07
2023-02-13T14:12:55.838Z,6.07
2023-02-13T14:15:34.882Z,5.70
2023-02-13T14:18:11.705Z,5.53
2023-02-13T14:20:41.778Z,5.93
2023-02-13T14:23:37.828Z,5.10
2023-02-13T14:26:16.011Z,5.23
2023-02-13T14:28:49.074Z,4.93
2023-02-13T14:31:34.710Z,4.87
2023-02-13T14:34:07.204Z,5.17
2023-02-13T14:36:39.756Z,5.37
2023-02-13T14:39:27.181Z,5.07
2023-02-13T14:41:56.803Z,5.53
2023-02-13T14:44:43.597Z,5.53
2023-02-13T14:47:31.915Z,4.87
2023-02-13T14:50:00.158Z,5.03
2023-02-13T14:52:29.896Z,5.00
2023-02-13T14:55:05.793Z,5.00
2023-02-13T14:57:43.147Z,5.60
2023-02-13T15:00:39.254Z,5.17
2023-02-13T15:03:28.293Z,5.87
2023-02-13T15:06:01.629Z,5.00
2023-02-13T15:08:35.949Z,5.50
2023-02-13T15:11:03.396Z,5.60
2023-02-13T15:13:35.927Z,5.27
2023-02-13T15:16:08.771Z,5.70
2023-02-13T15:18:38.392Z,5.53
2023-02-13T15:21:05.328Z,5.87
2023-02-13T15:23:33.960Z,5.27
2023-02-13T15:26:06.132Z,5.60
2023-02-13T15:28:34.109Z,5.47
2023-02-13T15:31:22.201Z,5.63
2023-02-13T15:33:50.573Z,5.37
2023-02-13T15:36:21.188Z,5.30
2023-02-13T15:38:48.077Z,5.17
2023-02-13T15:41:20.276Z,4.90
2023-02-13T15:43:49.969Z,4.70
2023-02-13T15:46:24.830Z,5.43
2023-02-13T15:48:56.472Z,5.90
2023-02-13T15:51:25.476Z,5.63
2023-02-13T15:53:55.825Z,5.00
2023-02-13T15:56:23.310Z,5.37
2023-02-13T15:58:50.946Z,5.50
2023-02-13T16:01:17.933Z,4.83
2023-02-13T16:03:49.610Z,4.90
2023-02-13T16:06:17.998Z,5.10
2023-02-13T16:08:52.000Z,4.90
2023-02-13T16:11:32.655Z,4.90
2023-02-13T16:14:21.621Z,5.23
2023-02-13T16:17:13.056Z,4.60
2023-02-13T16:19:39.651Z,4.70
2023-02-13T16:22:17.616Z,4.90
2023-02-13T16:24:56.174Z,4.70
2023-02-13T16:27:28.445Z,4.67
2023-02-13T16:30:01.132Z,4.50
2023-02-13T16:32:30.327Z,4.30
2023-02-13T16:34:57.525Z,4.57
2023-02-13T16:37:28.000Z,4.80
2023-02-13T16:39:54.738Z,4.30
2023-02-13T16:42:21.436Z,4.33
2023-02-13T16:44:48.378Z,4.60
2023-02-13T16:47:24.161Z,4.53
2023-02-13T16:49:57.050Z,4.13
2023-02-13T16:52:27.629Z,4.50
2023-02-13T16:54:59.904Z,4.80
2023-02-13T16:57:32.340Z,4.43
2023-02-13T17:00:19.146Z,5.13
2023-02-13T17:02:46.980Z,5.20
2023-02-13T17:05:32.080Z,4.70
2023-02-13T17:08:01.504Z,4.77
2023-02-13T17:10:33.901Z,4.57
2023-02-13T17:13:13.014Z,4.77
2023-02-13T17:15:44.873Z,4.37
2023-02-13T17:18:11.578Z,4.70
2023-02-13T17:20:50.376Z,5.10
2023-02-13T17:23:22.436Z,4.77
2023-02-13T17:25:59.568Z,5.10
2023-02-13T17:28:33.245Z,5.13
2023-02-13T17:31:01.379Z,5.17
2023-02-13T17:33:30.683Z,4.67
2023-02-13T17:35:58.926Z,4.83
2023-02-13T17:38:25.595Z,5.53
2023-02-13T17:40:52.298Z,5.27
2023-02-13T17:43:19.877Z,4.93
2023-02-13T17:45:47.309Z,5.20
2023-02-13T17:48:14.079Z,5.07
2023-02-13T17:50:41.252Z,5.40
2023-02-13T17:53:16.299Z,5.80
2023-02-13T17:55:43.179Z,5.47
2023-02-13T17:58:09.820Z,5.50
2023-02-13T18:00:36.521Z,5.50
2023-02-13T18:03:04.080Z,5.30
2023-02-13T18:05:33.096Z,6.17
2023-02-13T18:08:02.631Z,5.60
2023-02-13T18:10:31.476Z,5.40
2023-02-13T18:13:03.976Z,6.17
2023-02-13T18:15:36.172Z,6.17
2023-02-13T18:18:03.139Z,6.20
2023-02-13T18:20:29.954Z,6.07
2023-02-13T18:22:56.608Z,6.30
2023-02-13T18:25:23.701Z,6.30
2023-02-13T18:27:50.791Z,6.33
2023-02-13T18:30:19.328Z,6.20
2023-02-13T18:32:46.483Z,6.80
2023-02-13T18:35:13.192Z,6.40
2023-02-13T18:37:39.996Z,6.73
2023-02-13T18:40:08.075Z,7.07
2023-02-13T18:42:35.956Z,6.23
2023-02-13T18:45:03.305Z,6.20
2023-02-13T18:47:30.001Z,6.53
2023-02-13T18:49:56.738Z,6.80
2023-02-13T18:52:23.454Z,6.47
2023-02-13T18:54:50.181Z,6.43
2023-02-13T18:57:16.933Z,6.60
2023-02-13T18:59:43.609Z,6.67
2023-02-13T19:02:10.567Z,7.07
2023-02-13T19:04:38.218Z,6.90
2023-02-13T19:07:04.903Z,7.10
2023-02-13T19:09:32.028Z,6.97
2023-02-13T19:11:58.792Z,7.07
2023-02-13T19:14:26.712Z,6.83
2023-02-13T19:16:53.500Z,6.70
2023-02-13T19:19:20.135Z,7.03
2023-02-13T19:21:47.518Z,7.40
2023-02-13T19:24:15.566Z,6.97
2023-02-13T19:26:42.448Z,7.80
2023-02-13T19:29:09.123Z,7.37
2023-02-13T19:31:36.469Z,7.77
2023-02-13T19:34:05.757Z,7.97
2023-02-13T19:36:32.720Z,7.50
2023-02-13T19:39:03.331Z,7.80
2023-02-13T19:41:32.726Z,8.27
2023-02-13T19:44:00.901Z,7.47
2023-02-13T19:46:30.577Z,7.23
2023-02-13T19:48:57.886Z,7.60
2023-02-13T19:51:27.779Z,7.80
2023-02-13T19:53:58.593Z,8.57
2023-02-13T19:56:27.311Z,7.87
2023-02-13T19:58:54.105Z,8.10
2023-02-13T20:01:23.673Z,7.97
2023-02-13T20:03:50.892Z,7.90
2023-02-13T20:06:20.550Z,7.63
2023-02-13T20:08:47.637Z,8.07
2023-02-13T20:11:16.738Z,8.13
2023-02-13T20:13:43.812Z,7.93
2023-02-13T20:16:13.331Z,7.87
2023-02-13T20:18:41.026Z,7.90
2023-02-13T20:21:10.638Z,7.90
2023-02-13T20:23:37.552Z,7.73
2023-02-13T20:26:10.924Z,8.00
2023-02-13T20:28:38.349Z,7.40
2023-02-13T20:31:12.541Z,8.10
2023-02-13T20:33:40.342Z,7.13
2023-02-13T20:36:15.846Z,7.70
2023-02-13T20:38:43.136Z,8.23
2023-02-13T20:41:15.922Z,7.50
2023-02-13T20:43:42.917Z,7.47
2023-02-13T20:46:10.407Z,8.07
2023-02-13T20:48:41.440Z,7.40
2023-02-13T20:51:11.799Z,7.87
2023-02-13T20:53:39.199Z,7.73
2023-02-13T20:56:10.809Z,8.13
2023-02-13T20:58:38.385Z,8.23
2023-02-13T21:01:19.164Z,8.77
2023-02-13T21:03:48.326Z,8.50
2023-02-13T21:06:15.825Z,8.20
2023-02-13T21:08:43.735Z,9.00
2023-02-13T21:11:10.808Z,8.93
2023-02-13T21:13:40.279Z,8.87
2023-02-13T21:16:22.393Z,8.47
2023-02-13T21:18:53.723Z,8.07
2023-02-13T21:21:25.165Z,8.30
2023-02-13T21:23:56.394Z,7.93
2023-02-13T21:26:23.967Z,8.20
2023-02-13T21:28:52.064Z,8.07
2023-02-13T21:31:25.777Z,7.97
2023-02-13T21:33:53.022Z,6.77
2023-02-13T21:36:20.249Z,7.90
2023-02-13T21:38:47.036Z,8.13
2023-02-13T21:41:16.214Z,7.20
2023-02-13T21:43:46.730Z,7.37
2023-02-13T21:46:28.266Z,7.70
2023-02-13T21:48:59.986Z,7.73
2023-02-13T21:51:28.364Z,7.00
2023-02-13T21:53:55.233Z,7.83
2023-02-13T21:56:33.114Z,8.07
2023-02-13T21:58:59.823Z,7.33
2023-02-13T22:01:32.565Z,7.17
2023-02-13T22:04:01.428Z,7.10
2023-02-13T22:06:30.282Z,8.00
2023-02-13T22:09:02.084Z,7.73
2023-02-13T22:11:29.399Z,7.93
2023-02-13T22:13:58.633Z,7.33
2023-02-13T22:16:25.403Z,7.57
2023-02-13T22:18:52.116Z,7.47
2023-02-13T22:21:20.841Z,7.80
2023-02-13T22:23:48.170Z,8.07
2023-02-13T22:26:23.490Z,7.70
2023-02-13T22:28:50.934Z,7.43
2023-02-13T22:31:18.330Z,7.80
2023-02-13T22:33:49.839Z,7.80
2023-02-13T22:36:22.131Z,7.90
2023-02-13T22:38:50.053Z,7.90
2023-02-13T22:41:26.714Z,7.87
2023-02-13T22:43:53.734Z,7.90
2023-02-13T22:46:23.064Z,7.90
2023-02-13T22:48:52.301Z,7.70
2023-02-13T22:51:21.491Z,7.73
2023-02-13T22:53:50.989Z,8.13
2023-02-13T22:56:17.753Z,7.97
2023-02-13T22:58:44.376Z,7.93
2023-02-13T23:01:16.382Z,8.30
2023-02-13T23:03:43.329Z,8.20
2023-02-13T23:06:11.107Z,8.47
2023-02-13T23:08:38.604Z,8.37
2023-02-13T23:11:26.572Z,8.43
2023-02-13T23:13:53.293Z,7.57
2023-02-13T23:16:20.147Z,8.10
2023-02-13T23:18:57.249Z,8.07
2023-02-13T23:21:25.190Z,7.93
2023-02-13T23:23:51.943Z,8.17
2023-02-13T23:26:18.803Z,8.37
2023-02-13T23:28:45.604Z,8.30
2023-02-13T23:31:12.382Z,8.20
2023-02-13T23:33:39.137Z,8.07
2023-02-13T23:36:06.265Z,7.73
2023-02-13T23:38:32.927Z,8.27
2023-02-13T23:41:07.436Z,7.83
2023-02-13T23:43:34.133Z,8.10
2023-02-13T23:46:04.176Z,7.43
2023-02-13T23:48:31.364Z,7.83
2023-02-13T23:50:58.486Z,7.60
2023-02-13T23:53:25.617Z,7.80
2023-02-13T23:55:52.285Z,7.90
2023-02-13T23:58:18.957Z,7.77
